Time;durP1;ratioP1;P1;durP2;ratioP2;P2;SDS_P1;SDS_P2;PMS_P1;PMS_P2;Temp;Humidity;BMP_temperature;BMP_pressure;BME280_temperature;BME280_humidity;BME280_pressure;Samples;Min_cycle;Max_cycle;Signal;HPM_P1;HPM_P2
2021/06/10 00:03:33;;;;;;;2.85;1.60;;;;;;;17.50;60.31;100469.81;10545558;28;20425;-72
2021/06/10 00:08:35;;;;;;;2.35;1.75;;;;;;;17.38;60.59;100473.97;10545392;28;20046;-72
2021/06/10 00:13:36;;;;;;;2.10;1.80;;;;;;;17.92;58.89;100468.44;10545262;28;20058;-72
2021/06/10 00:18:38;;;;;;;2.53;2.05;;;;;;;17.67;59.43;100473.38;10527489;28;20047;-73
2021/06/10 00:23:40;;;;;;;2.42;1.90;;;;;;;17.33;60.50;100477.81;10545305;28;20044;-72
2021/06/10 00:28:41;;;;;;;2.22;1.92;;;;;;;17.13;61.36;100482.41;10544911;28;20048;-73
2021/06/10 00:33:43;;;;;;;2.60;2.30;;;;;;;17.10;60.88;100479.88;10544368;28;20055;-72
2021/06/10 00:38:46;;;;;;;2.08;1.85;;;;;;;17.43;60.66;100475.53;10544512;28;20051;-73
2021/06/10 00:43:48;;;;;;;2.95;1.65;;;;;;;17.38;60.56;100473.97;10544960;28;20040;-73
2021/06/10 00:48:50;;;;;;;2.38;1.63;;;;;;;16.92;61.56;100470.22;10544737;28;20481;-74
2021/06/10 00:53:51;;;;;;;2.95;2.00;;;;;;;17.21;60.77;100459.88;10544440;28;20075;-73
2021/06/10 00:58:53;;;;;;;1.98;1.80;;;;;;;16.69;62.19;100460.72;10545052;28;20044;-74
2021/06/10 01:03:55;;;;;;;2.85;1.80;;;;;;;16.51;62.83;100462.50;10544275;28;20485;-73
2021/06/10 01:09:18;;;;;;;2.95;1.90;;;;;;;16.37;62.86;100465.81;10542710;28;20044;-74
2021/06/10 01:14:36;;;;;;;2.33;2.10;;;;;;;16.31;63.13;100466.13;10526282;28;20048;-73
2021/06/10 01:19:41;;;;;;;2.25;1.95;;;;;;;16.31;63.78;100473.22;10543270;28;20043;-73
2021/06/10 01:24:48;;;;;;;2.75;2.55;;;;;;;16.37;63.47;100475.56;10542417;28;20454;-73
2021/06/10 01:29:59;;;;;;;2.33;2.13;;;;;;;16.76;62.64;100467.47;10542932;28;20040;-73
2021/06/10 01:35:02;;;;;;;2.08;1.88;;;;;;;16.63;62.11;100475.16;10543429;28;20082;-73
2021/06/10 01:40:05;;;;;;;2.45;1.70;;;;;;;16.29;63.29;100468.00;10542722;28;20062;-73
2021/06/10 01:45:10;;;;;;;6.10;1.65;;;;;;;16.17;63.38;100475.69;10542627;28;20094;-74
2021/06/10 01:50:14;;;;;;;2.17;1.83;;;;;;;16.15;64.03;100476.59;10523600;28;20046;-73
2021/06/10 01:55:18;;;;;;;3.08;2.25;;;;;;;16.13;64.59;100469.66;10543222;28;20490;-74
2021/06/10 02:00:20;;;;;;;2.78;2.00;;;;;;;16.17;64.50;100476.53;10541614;28;20111;-72
2021/06/10 02:05:23;;;;;;;3.20;2.85;;;;;;;16.38;62.94;100467.56;10542680;28;20044;-73
2021/06/10 02:10:26;;;;;;;2.70;2.50;;;;;;;16.00;64.70;100469.38;10542696;28;20544;-72
2021/06/10 02:15:30;;;;;;;3.20;2.42;;;;;;;15.75;65.11;100469.66;10543249;28;20048;-72
2021/06/10 02:20:31;;;;;;;3.50;2.63;;;;;;;15.98;64.65;100465.06;10542678;28;20040;-73
2021/06/10 02:25:34;;;;;;;3.05;2.75;;;;;;;15.73;65.35;100463.59;10543115;28;20047;-72
2021/06/10 02:30:36;;;;;;;2.45;2.25;;;;;;;15.70;65.32;100463.72;10524632;28;20047;-72
2021/06/10 02:35:38;;;;;;;2.60;2.40;;;;;;;15.74;65.56;100470.59;10543083;28;20048;-72
2021/06/10 02:40:42;;;;;;;2.60;2.40;;;;;;;15.79;65.77;100462.44;10549476;28;20051;-73
2021/06/10 02:45:47;;;;;;;2.63;2.10;;;;;;;15.97;65.57;100463.34;10525333;22;20045;-70
2021/06/10 02:50:50;;;;;;;3.65;2.80;;;;;;;15.91;65.19;100453.06;10487141;28;20045;-69
2021/06/10 02:55:54;;;;;;;4.40;2.88;;;;;;;15.71;65.85;100452.19;10504927;28;20044;-69
2021/06/10 03:00:57;;;;;;;2.60;2.40;;;;;;;15.52;66.63;100453.94;10486596;28;20053;-70
2021/06/10 03:06:00;;;;;;;3.05;2.58;;;;;;;15.35;67.41;100452.88;10503016;28;20054;-70
2021/06/10 03:11:05;;;;;;;3.35;2.83;;;;;;;15.71;66.60;100452.19;10504327;28;20040;-71
2021/06/10 03:16:07;;;;;;;4.65;3.13;;;;;;;15.70;66.80;100449.59;10505359;28;20036;-70
2021/06/10 03:21:09;;;;;;;3.40;3.10;;;;;;;15.64;67.08;100446.31;10503550;28;20040;-70
2021/06/10 03:26:12;;;;;;;2.30;2.10;;;;;;;15.78;66.90;100450.13;10502514;28;20412;-70
2021/06/10 03:31:14;;;;;;;3.38;2.83;;;;;;;16.01;66.33;100451.69;10502545;28;20052;-70
2021/06/10 03:36:17;;;;;;;3.55;2.53;;;;;;;16.33;64.73;100450.13;10502950;28;20490;-71
2021/06/10 03:41:20;;;;;;;3.53;3.10;;;;;;;16.12;65.84;100449.38;10502683;28;20044;-71
2021/06/10 03:46:23;;;;;;;4.63;3.17;;;;;;;16.18;65.01;100448.22;10502653;28;20494;-71
2021/06/10 03:51:25;;;;;;;3.25;2.40;;;;;;;16.30;65.62;100440.53;10501718;28;20046;-71
2021/06/10 03:56:27;;;;;;;3.47;2.85;;;;;;;16.32;64.73;100443.09;10502008;28;20123;-71
2021/06/10 04:01:28;;;;;;;4.93;3.15;;;;;;;16.45;64.21;100444.22;10501687;28;20045;-71
2021/06/10 04:06:34;;;;;;;3.00;2.63;;;;;;;16.46;63.78;100440.63;10502391;28;20041;-71
2021/06/10 04:11:38;;;;;;;2.35;2.13;;;;;;;16.56;63.14;100439.25;10499987;28;20054;-71
2021/06/10 04:16:39;;;;;;;3.65;2.47;;;;;;;16.58;62.92;100437.38;10500860;28;20044;-71
2021/06/10 04:21:41;;;;;;;4.47;2.30;;;;;;;16.73;62.43;100435.75;10501374;28;20032;-71
2021/06/10 04:26:43;;;;;;;8.18;2.30;;;;;;;17.00;61.52;100427.31;10499736;28;20170;-71
2021/06/10 04:31:44;;;;;;;2.38;1.70;;;;;;;16.89;62.02;100430.53;10500342;28;20054;-71
2021/06/10 04:36:46;;;;;;;3.42;2.47;;;;;;;17.04;61.88;100426.22;10501271;28;20037;-72
2021/06/10 04:41:47;;;;;;;3.45;2.78;;;;;;;17.09;61.86;100438.34;10501025;28;20045;-72
2021/06/10 04:46:49;;;;;;;3.13;2.38;;;;;;;17.32;60.76;100429.16;10500926;28;20036;-72
2021/06/10 04:51:50;;;;;;;2.70;2.30;;;;;;;17.59;60.05;100439.22;10500427;28;20040;-72
2021/06/10 04:56:52;;;;;;;6.03;2.92;;;;;;;17.53;59.81;100445.75;10499165;28;20493;-72
2021/06/10 05:01:54;;;;;;;3.90;3.45;;;;;;;17.65;58.96;100438.88;10497660;28;20059;-72
2021/06/10 05:06:55;;;;;;;3.67;3.10;;;;;;;17.63;59.27;100425.69;10499507;28;20036;-71
2021/06/10 05:11:57;;;;;;;4.07;3.15;;;;;;;17.93;59.11;100422.31;10499982;28;20496;-71
2021/06/10 05:16:59;;;;;;;3.30;2.88;;;;;;;17.58;59.93;100427.75;10498734;28;20061;-72
2021/06/10 05:22:00;;;;;;;4.75;3.15;;;;;;;17.65;60.10;100429.09;10499970;28;20099;-72
2021/06/10 05:27:04;;;;;;;3.80;3.40;;;;;;;17.73;59.82;100423.38;10498666;28;20044;-72
2021/06/10 05:32:08;;;;;;;8.38;3.55;;;;;;;18.48;57.53;100420.94;10499361;28;20053;-72
2021/06/10 05:37:10;;;;;;;4.68;3.05;;;;;;;18.84;56.76;100424.13;10498108;28;20090;-72
2021/06/10 05:42:13;;;;;;;5.00;3.30;;;;;;;20.15;53.70;100416.88;10498109;28;20044;-71
2021/06/10 05:47:15;;;;;;;3.60;3.30;;;;;;;19.99;54.74;100422.31;10498513;28;20456;-72
2021/06/10 05:52:17;;;;;;;3.65;3.13;;;;;;;20.55;53.77;100414.25;10497917;28;20090;-72
2021/06/10 05:57:19;;;;;;;5.00;3.95;;;;;;;20.92;53.66;100418.78;10497482;28;20401;-72
2021/06/10 06:02:20;;;;;;;7.60;3.20;;;;;;;20.74;54.21;100424.53;10498546;28;20433;-72
2021/06/10 06:07:22;;;;;;;4.30;3.17;;;;;;;20.73;53.70;100428.19;10498740;28;20040;-72
2021/06/10 06:12:24;;;;;;;7.97;3.00;;;;;;;20.83;53.36;100426.59;10499136;28;20044;-72
2021/06/10 06:17:25;;;;;;;5.15;3.15;;;;;;;20.73;53.98;100433.53;10506770;28;20068;-72
2021/06/10 06:22:28;;;;;;;9.18;3.63;;;;;;;20.91;53.24;100437.63;10506593;28;20050;-71
2021/06/10 06:27:30;;;;;;;10.30;2.95;;;;;;;20.85;53.71;100438.00;10505734;28;20111;-72
2021/06/10 06:32:33;;;;;;;5.47;3.47;;;;;;;21.03;53.88;100436.78;10505577;28;20151;-71
2021/06/10 06:37:35;;;;;;;4.97;3.10;;;;;;;21.18;53.32;100432.19;10505204;28;20053;-71
2021/06/10 06:42:37;;;;;;;5.68;4.05;;;;;;;21.31;52.53;100437.53;10505586;28;20052;-71
2021/06/10 06:47:39;;;;;;;9.13;3.42;;;;;;;21.14;53.01;100439.53;10505409;28;20078;-71
2021/06/10 06:52:40;;;;;;;4.35;3.00;;;;;;;21.14;53.99;100436.03;10503825;28;20189;-71
2021/06/10 06:57:45;;;;;;;4.70;3.95;;;;;;;21.24;53.33;100444.25;10506049;28;20505;-71
2021/06/10 07:02:48;;;;;;;7.05;3.45;;;;;;;21.47;52.58;100448.91;10504360;28;20055;-71
2021/06/10 07:07:50;;;;;;;7.07;3.55;;;;;;;21.54;52.71;100450.16;10504408;28;20049;-71
2021/06/10 07:12:52;;;;;;;5.72;3.42;;;;;;;21.77;51.76;100450.34;10503834;28;20044;-71
2021/06/10 07:17:53;;;;;;;8.50;3.40;;;;;;;21.82;52.89;100445.50;10504451;28;20045;-71
2021/06/10 07:22:56;;;;;;;10.98;3.60;;;;;;;21.94;51.94;100455.34;10503307;28;20052;-71
2021/06/10 07:27:57;;;;;;;7.32;3.78;;;;;;;22.28;51.69;100453.75;10502609;28;20045;-71
2021/06/10 07:32:59;;;;;;;6.90;3.58;;;;;;;22.30;51.82;100453.63;10503409;28;20055;-70
2021/06/10 07:38:02;;;;;;;4.57;3.08;;;;;;;22.08;52.64;100452.50;10503328;28;20540;-71
2021/06/10 07:43:04;;;;;;;8.65;3.30;;;;;;;22.54;51.27;100461.69;10502065;28;20048;-71
2021/06/10 07:48:07;;;;;;;4.82;3.20;;;;;;;22.78;52.05;100457.13;10502718;28;20490;-70
2021/06/10 07:53:09;;;;;;;5.50;3.70;;;;;;;23.29;51.20;100462.19;10502015;28;20057;-71
2021/06/10 07:58:14;;;;;;;8.25;3.55;;;;;;;23.33;50.09;100454.72;10502013;28;20056;-70
2021/06/10 08:03:16;;;;;;;5.70;3.53;;;;;;;22.80;51.12;100471.28;10502188;28;20120;-71
2021/06/10 08:08:18;;;;;;;7.13;4.00;;;;;;;22.53;53.11;100465.31;10502284;28;20049;-70
2021/06/10 08:13:24;;;;;;;7.15;4.10;;;;;;;22.95;52.25;100463.09;10500445;28;20126;-70
2021/06/10 08:18:27;;;;;;;;;;;;;;;22.74;52.15;100465.53;10501604;28;20037;-71
2021/06/10 08:23:29;;;;;;;10.35;4.32;;;;;;;22.60;52.75;100461.22;10501742;28;19921;-70
2021/06/10 08:28:32;;;;;;;5.47;3.80;;;;;;;23.00;52.89;100458.22;10501083;28;20036;-70
2021/06/10 08:33:35;;;;;;;35.05;6.68;;;;;;;23.96;51.76;100452.47;10498561;28;20387;-70
2021/06/10 08:38:37;;;;;;;7.53;4.57;;;;;;;24.70;49.74;100453.47;10499069;28;20036;-70
2021/06/10 08:43:39;;;;;;;6.32;4.15;;;;;;;24.46;50.58;100448.31;10501328;28;20132;-70
2021/06/10 08:48:43;;;;;;;7.57;5.07;;;;;;;24.24;51.38;100448.38;10553507;22;20047;-74
2021/06/10 08:53:45;;;;;;;6.65;4.57;;;;;;;25.05;50.48;100441.53;10544741;28;20051;-74
2021/06/10 08:58:47;;;;;;;6.40;5.07;;;;;;;25.62;48.96;100440.19;10542842;28;20122;-74
2021/06/10 09:03:49;;;;;;;5.30;4.80;;;;;;;25.44;49.03;100434.56;10543339;28;20044;-74
2021/06/10 09:08:58;;;;;;;9.50;5.20;;;;;;;26.90;47.56;100430.34;10542838;28;20156;-74
2021/06/10 09:14:08;;;;;;;5.22;4.60;;;;;;;26.67;47.22;100417.16;10543511;28;20042;-75
2021/06/10 09:19:17;;;;;;;5.65;5.25;;;;;;;27.66;44.58;100401.41;10525955;28;20043;-73
2021/06/10 09:24:28;;;;;;;21.80;6.10;;;;;;;28.83;42.34;100398.78;10526092;28;20040;-74
2021/06/10 09:29:50;;;;;;;5.38;4.63;;;;;;;28.84;42.83;100402.31;10525988;28;20101;-73
2021/06/10 09:34:59;;;;;;;5.50;5.20;;;;;;;29.10;39.50;100405.91;10543815;28;20046;-75
2021/06/10 09:40:06;;;;;;;5.35;4.95;;;;;;;27.10;43.69;100388.03;10527659;28;20127;-73
2021/06/10 09:45:19;;;;;;;5.35;5.05;;;;;;;26.49;43.90;100393.78;10510041;28;20103;-73
2021/06/10 09:50:32;;;;;;;5.63;5.22;;;;;;;26.69;44.76;100379.25;10544676;28;20036;-73
2021/06/10 09:55:58;;;;;;;5.03;4.63;;;;;;;27.68;42.11;100368.88;10543977;28;20585;-74
2021/06/10 10:01:16;;;;;;;4.32;4.03;;;;;;;27.94;42.52;100384.41;10527770;28;20046;-74
2021/06/10 10:06:24;;;;;;;5.13;4.65;;;;;;;27.41;42.54;100389.47;10544176;28;20062;-74
2021/06/10 10:11:27;;;;;;;5.63;5.32;;;;;;;27.13;42.53;100385.88;10545009;28;20044;-73
2021/06/10 10:16:31;;;;;;;4.93;4.53;;;;;;;26.56;43.24;100373.31;10542928;28;20493;-74
2021/06/10 10:21:36;;;;;;;5.13;4.72;;;;;;;25.79;45.75;100387.56;10544307;28;20551;-73
2021/06/10 10:26:40;;;;;;;4.68;4.28;;;;;;;25.37;45.68;100385.00;10543226;28;20474;-74
2021/06/10 10:31:44;;;;;;;4.47;4.18;;;;;;;24.86;47.09;100402.78;10525040;28;20150;-73
2021/06/10 10:36:46;;;;;;;5.50;3.75;;;;;;;23.73;48.45;100448.91;10544716;28;20437;-75
2021/06/10 10:41:49;;;;;;;3.97;3.15;;;;;;;22.41;50.89;100461.75;10525117;28;20062;-74
2021/06/10 10:47:00;;;;;;;3.83;2.30;;;;;;;21.61;52.56;100486.22;10525032;28;20139;-74
2021/06/10 10:52:14;;;;;;;3.90;2.65;;;;;;;21.20;54.97;100490.88;10524762;28;20047;-74
2021/06/10 10:57:30;;;;;;;3.80;3.00;;;;;;;20.82;57.17;100486.34;10541951;28;20055;-74
2021/06/10 11:02:31;;;;;;;3.72;3.42;;;;;;;20.23;58.76;100491.06;10531064;28;20055;-74
2021/06/10 11:07:37;;;;;;;3.85;3.55;;;;;;;20.56;58.70;100480.06;10532166;28;20048;-75
2021/06/10 11:12:47;;;;;;;5.50;2.73;;;;;;;20.59;58.65;100479.88;10533346;28;20054;-74
2021/06/10 11:17:56;;;;;;;3.25;2.95;;;;;;;20.47;56.25;100469.94;10532364;28;20040;-75
2021/06/10 11:23:10;;;;;;;3.83;2.80;;;;;;;21.10;55.71;100469.28;10549905;28;20542;-75
2021/06/10 11:28:16;;;;;;;2.85;2.65;;;;;;;21.41;55.02;100460.00;10550131;28;20477;-75
2021/06/10 11:33:17;;;;;;;2.93;2.63;;;;;;;22.25;53.02;100450.44;10549167;28;20044;-75
2021/06/10 11:38:31;;;;;;;2.38;2.20;;;;;;;23.14;51.05;100450.81;10530692;28;20052;-74
2021/06/10 11:43:35;;;;;;;2.83;2.63;;;;;;;22.84;51.23;100443.28;10531194;28;20048;-75
2021/06/10 11:48:40;;;;;;;3.22;2.92;;;;;;;23.23;50.56;100445.69;10550261;28;20044;-75
2021/06/10 11:53:41;;;;;;;2.40;2.03;;;;;;;23.50;49.32;100430.09;10548293;28;20048;-75
2021/06/10 11:58:43;;;;;;;2.22;2.03;;;;;;;23.97;46.52;100430.00;10547893;28;20036;-75
2021/06/10 12:03:45;;;;;;;2.90;2.30;;;;;;;24.29;47.98;100419.28;10548508;28;20051;-74
2021/06/10 12:08:47;;;;;;;2.72;1.90;;;;;;;24.88;43.86;100406.22;10529712;28;20056;-75
2021/06/10 12:13:52;;;;;;;4.53;2.85;;;;;;;25.12;45.59;100405.97;10547814;28;20036;-74
2021/06/10 12:18:54;;;;;;;2.22;1.90;;;;;;;25.67;44.76;100397.53;10530963;28;20040;-75
2021/06/10 12:23:59;;;;;;;2.25;2.05;;;;;;;25.59;42.79;100387.47;10547147;28;20042;-75
2021/06/10 12:29:03;;;;;;;5.00;1.88;;;;;;;26.16;42.68;100375.16;10547059;28;20040;-74
2021/06/10 12:34:07;;;;;;;2.00;1.80;;;;;;;27.11;40.90;100373.53;10529575;28;20058;-74
2021/06/10 12:39:11;;;;;;;4.00;2.17;;;;;;;27.15;41.29;100370.41;10547684;28;20079;-74
2021/06/10 12:44:17;;;;;;;3.60;2.05;;;;;;;27.27;40.09;100360.28;10547424;28;20054;-74
2021/06/10 12:49:26;;;;;;;2.45;2.25;;;;;;;26.65;42.09;100342.78;10528882;28;20405;-74
2021/06/10 12:54:32;;;;;;;2.35;2.17;;;;;;;26.94;43.02;100331.09;10548830;28;20051;-74
2021/06/10 12:59:37;;;;;;;3.10;2.45;;;;;;;26.84;40.87;100334.69;10545740;28;20519;-74
2021/06/10 13:04:46;;;;;;;3.00;2.80;;;;;;;26.61;41.92;100327.94;10528095;28;20044;-74
2021/06/10 13:09:47;;;;;;;6.70;2.33;;;;;;;26.76;41.26;100328.31;10546119;28;20038;-74
2021/06/10 13:15:09;;;;;;;2.50;2.38;;;;;;;26.99;41.66;100329.66;10544481;28;20555;-73
2021/06/10 13:20:11;;;;;;;3.67;3.40;;;;;;;27.30;40.94;100318.63;10509843;28;20493;-74
2021/06/10 13:25:13;;;;;;;3.40;3.10;;;;;;;27.35;40.53;100313.63;10544647;28;20055;-74
2021/06/10 13:30:19;;;;;;;3.78;3.20;;;;;;;27.03;41.38;100317.56;10527660;28;20048;-74
2021/06/10 13:35:25;;;;;;;3.25;2.80;;;;;;;27.41;40.41;100316.59;10544372;28;20043;-74
2021/06/10 13:40:26;;;;;;;3.10;2.90;;;;;;;27.80;40.14;100316.38;10543651;28;20051;-73
2021/06/10 13:45:30;;;;;;;2.55;2.30;;;;;;;27.22;42.41;100313.13;10542490;28;20051;-72
2021/06/10 13:50:32;;;;;;;2.85;2.65;;;;;;;26.67;43.03;100303.91;10542937;28;20063;-74
2021/06/10 13:55:34;;;;;;;2.83;2.55;;;;;;;26.93;42.07;100305.97;10544362;28;20044;-73
2021/06/10 14:00:35;;;;;;;2.42;2.25;;;;;;;26.98;41.23;100294.75;10543761;28;20040;-74
2021/06/10 14:05:37;;;;;;;2.13;2.03;;;;;;;26.99;40.80;100293.75;10525766;28;20047;-74
2021/06/10 14:10:39;;;;;;;2.25;2.15;;;;;;;26.91;39.91;100292.63;10543175;28;20036;-73
2021/06/10 14:15:42;;;;;;;2.65;2.45;;;;;;;26.93;40.02;100281.69;10525670;28;20055;-74
2021/06/10 14:20:44;;;;;;;4.15;2.47;;;;;;;27.35;40.35;100275.84;10544357;28;20048;-74
2021/06/10 14:25:46;;;;;;;2.20;2.00;;;;;;;27.35;39.10;100273.13;10525690;28;20205;-73
2021/06/10 14:31:01;;;;;;;1.90;1.80;;;;;;;27.08;39.67;100285.59;10544332;28;20123;-74
2021/06/10 14:36:03;;;;;;;3.53;1.83;;;;;;;27.14;39.60;100292.31;10532129;28;20043;-74
2021/06/10 14:41:05;;;;;;;2.65;2.10;;;;;;;27.37;39.64;100290.06;10550969;28;20047;-74
2021/06/10 14:46:06;;;;;;;2.40;2.20;;;;;;;26.98;40.83;100275.84;10562919;22;20066;-74
2021/06/10 14:51:12;;;;;;;2.00;1.90;;;;;;;26.53;41.68;100271.19;10533235;28;20048;-74
2021/06/10 14:56:18;;;;;;;2.10;2.00;;;;;;;26.56;40.99;100273.56;10549865;28;20404;-74
2021/06/10 15:01:20;;;;;;;2.22;2.13;;;;;;;26.03;42.53;100272.22;10517028;28;20463;-73
2021/06/10 15:06:22;;;;;;;2.45;2.25;;;;;;;25.78;44.71;100270.09;10549100;28;20040;-73
2021/06/10 15:11:24;;;;;;;3.85;2.35;;;;;;;26.06;44.14;100271.91;10533010;28;20044;-75
2021/06/10 15:16:25;;;;;;;7.50;2.15;;;;;;;26.07;43.22;100270.91;10550786;28;20497;-74
2021/06/10 15:21:27;;;;;;;2.13;1.92;;;;;;;25.91;41.90;100279.59;10553550;28;20119;-74
2021/06/10 15:26:30;;;;;;;2.72;2.13;;;;;;;25.74;42.93;100274.00;10534782;28;20051;-74
2021/06/10 15:31:32;;;;;;;2.38;2.15;;;;;;;26.31;42.90;100269.63;10531214;28;20051;-74
2021/06/10 15:36:33;;;;;;;2.38;2.20;;;;;;;26.46;43.32;100275.44;10550746;28;20046;-74
2021/06/10 15:41:36;;;;;;;2.97;2.78;;;;;;;26.04;44.93;100279.31;10531492;28;20040;-74
2021/06/10 15:46:37;;;;;;;3.20;2.78;;;;;;;26.29;44.05;100285.09;10533455;28;20127;-74
2021/06/10 15:51:40;;;;;;;2.53;2.35;;;;;;;26.38;43.46;100300.38;10530042;28;20442;-73
2021/06/10 15:56:42;;;;;;;5.07;2.47;;;;;;;25.34;45.17;100296.47;10530725;28;20135;-73
2021/06/10 16:01:44;;;;;;;4.00;2.30;;;;;;;24.73;46.21;100294.59;10549561;28;20067;-74
2021/06/10 16:06:47;;;;;;;4.03;2.00;;;;;;;24.45;46.32;100293.47;10533575;28;20055;-74
2021/06/10 16:11:49;;;;;;;3.55;1.90;;;;;;;24.28;47.15;100283.25;10550295;28;20043;-73
2021/06/10 16:16:51;;;;;;;3.25;2.75;;;;;;;23.90;47.76;100282.81;10549259;28;20047;-74
2021/06/10 16:21:53;;;;;;;3.13;2.50;;;;;;;23.85;48.77;100278.81;10548992;28;20044;-74
2021/06/10 16:26:55;;;;;;;2.83;2.63;;;;;;;23.92;48.83;100283.56;10514197;28;20413;-74
2021/06/10 16:31:57;;;;;;;2.72;2.53;;;;;;;23.83;49.97;100278.09;10530627;28;20050;-74
2021/06/10 16:36:59;;;;;;;3.13;2.85;;;;;;;23.69;49.48;100279.25;10528744;28;20040;-73
2021/06/10 16:42:01;;;;;;;2.28;2.13;;;;;;;23.47;48.55;100282.81;10547342;28;20056;-74
2021/06/10 16:47:04;;;;;;;5.03;2.25;;;;;;;23.18;49.24;100282.47;10546842;28;20054;-73
2021/06/10 16:52:07;;;;;;;2.70;2.50;;;;;;;23.11;49.64;100274.09;10531359;28;20046;-74
2021/06/10 16:57:09;;;;;;;3.08;2.38;;;;;;;22.90;50.59;100273.97;10530044;28;20050;-74
2021/06/10 17:02:26;;;;;;;2.20;2.00;;;;;;;22.63;50.45;100260.88;10554436;28;20036;-74
2021/06/10 17:07:28;;;;;;;2.33;2.10;;;;;;;22.45;51.34;100262.31;10530959;28;20389;-74
2021/06/10 17:12:30;;;;;;;2.60;2.20;;;;;;;22.51;50.78;100259.16;10531749;28;20047;-73
2021/06/10 17:17:32;;;;;;;3.42;2.38;;;;;;;22.47;50.89;100256.84;10549916;28;20086;-73
2021/06/10 17:22:34;;;;;;;2.40;2.20;;;;;;;22.33;50.98;100253.41;10529626;28;20032;-73
2021/06/10 17:27:38;;;;;;;2.00;1.90;;;;;;;22.39;50.56;100252.91;10530828;28;20169;-74
2021/06/10 17:32:41;;;;;;;5.45;2.28;;;;;;;22.01;50.82;100245.13;10529616;28;20412;-73
2021/06/10 17:37:43;;;;;;;2.33;2.13;;;;;;;21.85;51.17;100250.78;10529610;28;20106;-74
2021/06/10 17:42:45;;;;;;;3.83;2.13;;;;;;;21.67;52.17;100249.50;10527271;28;20127;-74
2021/06/10 17:47:48;;;;;;;3.47;1.83;;;;;;;22.05;50.92;100245.75;10534076;28;20103;-72
2021/06/10 17:52:49;;;;;;;2.53;1.90;;;;;;;21.58;52.32;100243.00;10528228;28;20064;-74
2021/06/10 17:57:52;;;;;;;4.63;1.77;;;;;;;21.84;51.21;100250.91;10531803;28;20401;-73
2021/06/10 18:02:54;;;;;;;1.83;1.73;;;;;;;21.72;52.03;100259.84;10510267;28;20143;-74
2021/06/10 18:07:59;;;;;;;1.50;1.40;;;;;;;21.61;51.80;100255.31;10533460;28;20052;-74
2021/06/10 18:13:01;;;;;;;3.35;1.75;;;;;;;21.51;52.55;100264.97;10550340;28;20394;-75
2021/06/10 18:18:07;;;;;;;2.38;1.90;;;;;;;21.87;50.84;100272.09;10531481;28;20062;-74
2021/06/10 18:23:09;;;;;;;4.22;2.08;;;;;;;21.51;51.22;100270.31;10510534;28;20052;-74
2021/06/10 18:28:10;;;;;;;1.77;1.67;;;;;;;21.29;52.23;100277.19;10546047;28;20036;-74
2021/06/10 18:33:13;;;;;;;1.92;1.83;;;;;;;21.23;51.85;100272.28;10526553;28;20048;-74
2021/06/10 18:38:14;;;;;;;2.05;1.90;;;;;;;21.01;52.46;100281.00;10544453;28;20054;-74
2021/06/10 18:43:16;;;;;;;2.10;1.90;;;;;;;20.82;52.73;100280.59;10547296;28;20046;-74
2021/06/10 18:48:24;;;;;;;2.88;1.55;;;;;;;20.71;52.78;100289.34;10527704;28;20054;-75
2021/06/10 18:53:26;;;;;;;3.60;1.98;;;;;;;20.76;53.41;100283.69;10525087;28;20127;-74
2021/06/10 18:58:28;;;;;;;2.85;1.95;;;;;;;20.69;53.57;100287.78;10543727;28;20242;-74
2021/06/10 19:03:30;;;;;;;3.20;2.05;;;;;;;20.66;54.21;100284.34;10532025;28;20055;-75
2021/06/10 19:08:57;;;;;;;2.85;2.25;;;;;;;20.40;55.34;100286.09;10531194;28;20119;-77
2021/06/10 19:14:05;;;;;;;3.15;2.17;;;;;;;20.38;55.46;100284.53;10528473;28;20428;-75
2021/06/10 19:19:07;;;;;;;2.28;2.08;;;;;;;20.30;55.60;100286.84;10546606;28;20040;-74
2021/06/10 19:24:09;;;;;;;2.22;2.13;;;;;;;20.29;55.72;100296.69;10537461;28;20056;-73
2021/06/10 19:29:11;;;;;;;2.88;2.58;;;;;;;20.08;56.69;100304.31;10559114;28;20127;-74
2021/06/10 19:39:19;;;;;;;3.03;2.15;;;;;;;19.98;56.47;100307.72;10542708;28;20052;-74
2021/06/10 19:44:25;;;;;;;2.90;2.47;;;;;;;19.89;56.68;100310.03;10524818;28;20047;-75
2021/06/10 19:49:27;;;;;;;2.47;2.28;;;;;;;19.69;57.17;100302.47;10556493;28;20036;-75
2021/06/10 19:54:30;;;;;;;2.38;2.22;;;;;;;19.85;56.57;100300.50;10533098;28;20052;-73
2021/06/10 19:59:32;;;;;;;2.80;2.30;;;;;;;19.79;56.91;100303.59;10550488;28;20504;-74
2021/06/10 20:04:34;;;;;;;2.95;2.53;;;;;;;19.70;57.35;100306.88;10549689;28;20040;-75
2021/06/10 20:09:37;;;;;;;2.78;2.55;;;;;;;19.68;57.38;100310.56;10558444;28;20036;-75
2021/06/10 20:14:40;;;;;;;2.97;2.78;;;;;;;19.53;57.92;100313.25;10534574;28;20078;-76
2021/06/10 20:19:42;;;;;;;2.42;2.22;;;;;;;19.57;57.76;100308.59;10538909;28;20040;-74
2021/06/10 20:24:45;;;;;;;3.03;2.83;;;;;;;19.41;58.03;100314.03;10558314;28;20119;-74
2021/06/10 20:35:10;;;;;;;4.30;2.40;;;;;;;19.14;58.93;100298.84;10546615;28;20044;-75
2021/06/10 20:40:14;;;;;;;5.30;2.85;;;;;;;19.13;59.16;100318.47;10530696;28;20036;-75
2021/06/10 20:45:21;;;;;;;2.85;2.65;;;;;;;19.35;58.36;100312.63;10532464;28;20451;-75
2021/06/10 20:50:23;;;;;;;2.97;2.70;;;;;;;19.07;59.08;100310.81;10558549;23;20054;-71
2021/06/10 20:55:24;;;;;;;3.22;3.03;;;;;;;19.05;59.26;100303.91;10587673;28;20465;-72
2021/06/10 21:00:27;;;;;;;2.58;2.40;;;;;;;19.00;59.99;100296.19;10586380;28;20069;-72
2021/06/10 21:05:29;;;;;;;3.70;2.88;;;;;;;19.03;59.81;100295.97;10589182;28;20051;-72
2021/06/10 21:10:30;;;;;;;2.72;2.53;;;;;;;18.93;59.82;100291.34;10572994;28;20047;-73
2021/06/10 21:15:33;;;;;;;2.70;2.50;;;;;;;18.93;59.70;100292.19;10590552;28;20422;-72
2021/06/10 21:20:36;;;;;;;3.40;3.10;;;;;;;18.78;60.37;100288.69;10585198;28;20040;-72
2021/06/10 21:25:38;;;;;;;3.45;3.20;;;;;;;18.64;60.97;100296.63;10586342;28;20096;-72
2021/06/10 21:30:40;;;;;;;3.72;3.42;;;;;;;18.57;60.96;100301.47;10585263;28;20059;-72
2021/06/10 21:35:42;;;;;;;3.30;3.10;;;;;;;18.58;61.00;100305.81;10566420;28;20058;-72
2021/06/10 21:40:45;;;;;;;3.35;3.03;;;;;;;18.90;60.10;100303.91;10548707;28;20044;-71
2021/06/10 21:45:47;;;;;;;3.50;3.22;;;;;;;18.75;60.86;100314.63;10564583;28;20052;-72
2021/06/10 21:50:48;;;;;;;4.15;3.85;;;;;;;18.65;61.68;100306.31;10583351;28;20048;-71
2021/06/10 21:55:51;;;;;;;5.45;5.03;;;;;;;19.01;60.57;100313.03;10548022;28;20138;-72
2021/06/10 22:00:52;;;;;;;4.90;4.38;;;;;;;18.75;61.19;100315.50;10582901;28;20055;-72
2021/06/10 22:05:55;;;;;;;4.63;4.32;;;;;;;18.59;61.60;100323.53;10564481;28;20519;-73
2021/06/10 22:10:57;;;;;;;4.85;4.55;;;;;;;18.57;61.69;100320.09;10582941;28;20118;-71
2021/06/10 22:15:59;;;;;;;4.03;3.80;;;;;;;18.40;61.71;100317.59;10583047;28;20035;-71
2021/06/10 22:21:01;;;;;;;3.30;3.10;;;;;;;18.60;60.97;100311.09;10583861;28;20526;-71
2021/06/10 22:26:03;;;;;;;2.85;2.65;;;;;;;18.43;61.68;100308.56;10564877;28;20556;-71
2021/06/10 22:31:04;;;;;;;3.28;3.08;;;;;;;18.47;61.24;100310.97;10564711;28;20048;-72
2021/06/10 22:36:07;;;;;;;3.85;2.92;;;;;;;18.76;60.51;100311.00;10582974;28;20432;-72
2021/06/10 22:41:09;;;;;;;3.17;2.80;;;;;;;18.97;60.12;100309.69;10564469;28;20049;-72
2021/06/10 22:46:18;;;;;;;3.63;3.28;;;;;;;18.64;61.37;100308.13;10582338;28;20054;-72
2021/06/10 22:51:20;;;;;;;4.18;3.25;;;;;;;18.73;60.53;100313.88;10583304;28;20040;-71
2021/06/10 22:56:21;;;;;;;2.97;2.78;;;;;;;18.55;61.54;100316.69;10586118;28;20044;-72
2021/06/10 23:01:23;;;;;;;3.20;2.92;;;;;;;18.76;60.69;100311.00;10571920;28;20097;-72
2021/06/10 23:06:25;;;;;;;3.38;3.17;;;;;;;18.62;61.48;100314.50;10571758;28;20059;-71
2021/06/10 23:11:26;;;;;;;3.08;2.88;;;;;;;18.36;62.26;100313.38;10590867;28;20370;-72
2021/06/10 23:16:28;;;;;;;3.47;3.22;;;;;;;18.43;61.77;100303.25;10590075;28;20043;-72
2021/06/10 23:21:30;;;;;;;3.28;3.08;;;;;;;18.52;61.13;100300.88;10589103;28;20577;-72
2021/06/10 23:26:31;;;;;;;2.88;2.67;;;;;;;18.16;62.41;100306.59;10588797;28;20046;-72